sensor_id;sensor_type;location;lat;lon;timestamp;P1;durP1;ratioP1;P2;durP2;ratioP2
51686;SDS011;37774;52.192;4.584;2023-11-22T00:02:10;14.25;;;7.05;;
51686;SDS011;37774;52.192;4.584;2023-11-22T00:04:57;16.95;;;7.55;;
51686;SDS011;37774;52.192;4.584;2023-11-22T00:07:43;17.30;;;7.38;;
51686;SDS011;37774;52.192;4.584;2023-11-22T00:10:28;13.48;;;6.70;;
51686;SDS011;37774;52.192;4.584;2023-11-22T00:13:13;18.58;;;7.90;;
51686;SDS011;37774;52.192;4.584;2023-11-22T00:15:59;16.48;;;6.80;;
51686;SDS011;37774;52.192;4.584;2023-11-22T00:18:44;16.15;;;7.07;;
51686;SDS011;37774;52.192;4.584;2023-11-22T00:21:32;18.38;;;7.10;;
51686;SDS011;37774;52.192;4.584;2023-11-22T00:24:17;21.45;;;7.03;;
51686;SDS011;37774;52.192;4.584;2023-11-22T00:27:02;16.38;;;6.40;;
51686;SDS011;37774;52.192;4.584;2023-11-22T00:29:47;27.55;;;6.93;;
51686;SDS011;37774;52.192;4.584;2023-11-22T00:32:32;23.17;;;6.97;;
51686;SDS011;37774;52.192;4.584;2023-11-22T00:35:17;17.08;;;7.32;;
51686;SDS011;37774;52.192;4.584;2023-11-22T00:38:03;26.90;;;8.25;;
51686;SDS011;37774;52.192;4.584;2023-11-22T00:40:49;17.08;;;7.60;;
51686;SDS011;37774;52.192;4.584;2023-11-22T00:43:34;18.75;;;7.22;;
51686;SDS011;37774;52.192;4.584;2023-11-22T00:46:19;19.95;;;8.30;;
51686;SDS011;37774;52.192;4.584;2023-11-22T00:49:04;24.70;;;7.10;;
51686;SDS011;37774;52.192;4.584;2023-11-22T00:51:49;15.98;;;7.13;;
51686;SDS011;37774;52.192;4.584;2023-11-22T00:54:37;19.52;;;8.00;;
51686;SDS011;37774;52.192;4.584;2023-11-22T00:57:22;23.67;;;8.57;;
51686;SDS011;37774;52.192;4.584;2023-11-22T01:00:08;25.85;;;7.60;;
51686;SDS011;37774;52.192;4.584;2023-11-22T01:02:55;16.27;;;7.25;;
51686;SDS011;37774;52.192;4.584;2023-11-22T01:05:39;18.73;;;8.68;;
51686;SDS011;37774;52.192;4.584;2023-11-22T01:08:26;31.05;;;8.70;;
51686;SDS011;37774;52.192;4.584;2023-11-22T01:11:12;17.75;;;7.15;;
51686;SDS011;37774;52.192;4.584;2023-11-22T01:13:58;18.55;;;8.27;;
51686;SDS011;37774;52.192;4.584;2023-11-22T01:16:43;15.38;;;7.47;;
51686;SDS011;37774;52.192;4.584;2023-11-22T01:19:27;16.60;;;7.88;;
51686;SDS011;37774;52.192;4.584;2023-11-22T01:22:12;20.52;;;8.77;;
51686;SDS011;37774;52.192;4.584;2023-11-22T01:24:57;19.83;;;7.20;;
51686;SDS011;37774;52.192;4.584;2023-11-22T01:27:44;14.73;;;6.97;;
51686;SDS011;37774;52.192;4.584;2023-11-22T01:30:29;17.85;;;7.47;;
51686;SDS011;37774;52.192;4.584;2023-11-22T01:33:14;17.33;;;7.43;;
51686;SDS011;37774;52.192;4.584;2023-11-22T01:35:59;27.75;;;9.10;;
51686;SDS011;37774;52.192;4.584;2023-11-22T01:38:44;19.05;;;8.23;;
51686;SDS011;37774;52.192;4.584;2023-11-22T01:41:30;18.42;;;8.85;;
51686;SDS011;37774;52.192;4.584;2023-11-22T01:44:16;16.50;;;7.82;;
51686;SDS011;37774;52.192;4.584;2023-11-22T01:47:03;17.70;;;7.45;;
51686;SDS011;37774;52.192;4.584;2023-11-22T01:49:49;23.70;;;8.77;;
51686;SDS011;37774;52.192;4.584;2023-11-22T01:52:34;19.52;;;8.45;;
51686;SDS011;37774;52.192;4.584;2023-11-22T01:55:20;27.17;;;9.13;;
51686;SDS011;37774;52.192;4.584;2023-11-22T01:58:05;17.80;;;8.25;;
51686;SDS011;37774;52.192;4.584;2023-11-22T02:00:52;18.58;;;8.88;;
51686;SDS011;37774;52.192;4.584;2023-11-22T02:03:38;14.82;;;7.70;;
51686;SDS011;37774;52.192;4.584;2023-11-22T02:06:23;17.15;;;7.25;;
51686;SDS011;37774;52.192;4.584;2023-11-22T02:09:09;13.68;;;7.25;;
51686;SDS011;37774;52.192;4.584;2023-11-22T02:11:57;21.70;;;8.38;;
51686;SDS011;37774;52.192;4.584;2023-11-22T02:14:42;26.83;;;8.27;;
51686;SDS011;37774;52.192;4.584;2023-11-22T02:17:29;25.25;;;8.95;;
51686;SDS011;37774;52.192;4.584;2023-11-22T02:20:14;19.35;;;8.35;;
51686;SDS011;37774;52.192;4.584;2023-11-22T02:23:03;16.77;;;7.82;;
51686;SDS011;37774;52.192;4.584;2023-11-22T02:25:48;20.50;;;9.00;;
51686;SDS011;37774;52.192;4.584;2023-11-22T02:28:34;17.52;;;7.72;;
51686;SDS011;37774;52.192;4.584;2023-11-22T02:31:19;18.85;;;8.00;;
51686;SDS011;37774;52.192;4.584;2023-11-22T02:34:05;18.55;;;7.95;;
51686;SDS011;37774;52.192;4.584;2023-11-22T02:36:49;18.95;;;8.13;;
51686;SDS011;37774;52.192;4.584;2023-11-22T02:42:37;23.10;;;8.40;;
51686;SDS011;37774;52.192;4.584;2023-11-22T02:45:25;16.67;;;7.25;;
51686;SDS011;37774;52.192;4.584;2023-11-22T02:48:10;17.33;;;8.73;;
51686;SDS011;37774;52.192;4.584;2023-11-22T02:50:57;28.42;;;8.88;;
51686;SDS011;37774;52.192;4.584;2023-11-22T02:53:42;21.95;;;8.88;;
51686;SDS011;37774;52.192;4.584;2023-11-22T02:59:16;17.65;;;8.18;;
51686;SDS011;37774;52.192;4.584;2023-11-22T03:02:03;17.35;;;7.90;;
51686;SDS011;37774;52.192;4.584;2023-11-22T03:04:48;24.00;;;8.70;;
51686;SDS011;37774;52.192;4.584;2023-11-22T03:07:33;21.02;;;8.32;;
51686;SDS011;37774;52.192;4.584;2023-11-22T03:10:18;23.30;;;8.95;;
51686;SDS011;37774;52.192;4.584;2023-11-22T03:13:03;20.50;;;7.72;;
51686;SDS011;37774;52.192;4.584;2023-11-22T03:15:50;21.17;;;8.20;;
51686;SDS011;37774;52.192;4.584;2023-11-22T03:18:35;21.70;;;9.00;;
51686;SDS011;37774;52.192;4.584;2023-11-22T03:21:22;24.42;;;8.65;;
51686;SDS011;37774;52.192;4.584;2023-11-22T03:24:09;22.90;;;8.85;;
51686;SDS011;37774;52.192;4.584;2023-11-22T03:26:55;16.08;;;7.55;;
51686;SDS011;37774;52.192;4.584;2023-11-22T03:29:42;19.15;;;8.35;;
51686;SDS011;37774;52.192;4.584;2023-11-22T03:32:29;15.65;;;7.35;;
51686;SDS011;37774;52.192;4.584;2023-11-22T03:35:14;24.85;;;9.27;;
51686;SDS011;37774;52.192;4.584;2023-11-22T03:38:00;23.40;;;8.70;;
51686;SDS011;37774;52.192;4.584;2023-11-22T03:40:45;18.88;;;8.65;;
51686;SDS011;37774;52.192;4.584;2023-11-22T03:43:31;24.67;;;7.70;;
51686;SDS011;37774;52.192;4.584;2023-11-22T03:46:16;19.40;;;8.88;;
51686;SDS011;37774;52.192;4.584;2023-11-22T03:49:03;14.38;;;7.18;;
51686;SDS011;37774;52.192;4.584;2023-11-22T03:51:48;11.70;;;6.20;;
51686;SDS011;37774;52.192;4.584;2023-11-22T03:54:33;10.95;;;5.03;;
51686;SDS011;37774;52.192;4.584;2023-11-22T03:57:19;10.45;;;5.45;;
51686;SDS011;37774;52.192;4.584;2023-11-22T04:00:05;11.35;;;4.95;;
51686;SDS011;37774;52.192;4.584;2023-11-22T04:02:51;10.00;;;4.57;;
51686;SDS011;37774;52.192;4.584;2023-11-22T04:05:37;12.07;;;5.40;;
51686;SDS011;37774;52.192;4.584;2023-11-22T04:08:23;12.40;;;6.10;;
51686;SDS011;37774;52.192;4.584;2023-11-22T04:11:09;14.30;;;6.65;;
51686;SDS011;37774;52.192;4.584;2023-11-22T04:13:55;14.70;;;7.22;;
51686;SDS011;37774;52.192;4.584;2023-11-22T04:16:40;15.45;;;6.78;;
51686;SDS011;37774;52.192;4.584;2023-11-22T04:19:25;19.88;;;7.25;;
51686;SDS011;37774;52.192;4.584;2023-11-22T04:22:12;19.88;;;8.27;;
51686;SDS011;37774;52.192;4.584;2023-11-22T04:24:57;16.27;;;8.43;;
51686;SDS011;37774;52.192;4.584;2023-11-22T04:27:42;20.83;;;9.20;;
51686;SDS011;37774;52.192;4.584;2023-11-22T04:30:27;15.52;;;8.57;;
51686;SDS011;37774;52.192;4.584;2023-11-22T04:33:12;23.33;;;9.35;;
51686;SDS011;37774;52.192;4.584;2023-11-22T04:35:57;23.50;;;9.85;;
51686;SDS011;37774;52.192;4.584;2023-11-22T04:38:43;25.90;;;9.25;;
51686;SDS011;37774;52.192;4.584;2023-11-22T04:41:29;21.15;;;9.77;;
51686;SDS011;37774;52.192;4.584;2023-11-22T04:44:14;25.98;;;9.23;;
51686;SDS011;37774;52.192;4.584;2023-11-22T04:46:59;27.85;;;11.15;;
51686;SDS011;37774;52.192;4.584;2023-11-22T04:49:44;35.70;;;12.75;;
51686;SDS011;37774;52.192;4.584;2023-11-22T04:52:29;33.72;;;12.20;;
51686;SDS011;37774;52.192;4.584;2023-11-22T04:55:16;27.65;;;11.68;;
51686;SDS011;37774;52.192;4.584;2023-11-22T04:58:01;29.48;;;11.30;;
51686;SDS011;37774;52.192;4.584;2023-11-22T05:00:46;27.73;;;11.35;;
51686;SDS011;37774;52.192;4.584;2023-11-22T05:03:32;28.73;;;11.75;;
51686;SDS011;37774;52.192;4.584;2023-11-22T05:06:17;25.65;;;10.38;;
51686;SDS011;37774;52.192;4.584;2023-11-22T05:09:02;31.90;;;11.60;;
51686;SDS011;37774;52.192;4.584;2023-11-22T05:11:49;32.80;;;11.85;;
51686;SDS011;37774;52.192;4.584;2023-11-22T05:14:35;28.75;;;10.85;;
51686;SDS011;37774;52.192;4.584;2023-11-22T05:17:20;28.95;;;11.73;;
51686;SDS011;37774;52.192;4.584;2023-11-22T05:20:06;26.30;;;10.88;;
51686;SDS011;37774;52.192;4.584;2023-11-22T05:22:53;30.23;;;10.38;;
51686;SDS011;37774;52.192;4.584;2023-11-22T05:25:38;29.13;;;11.75;;
51686;SDS011;37774;52.192;4.584;2023-11-22T05:28:24;24.08;;;10.63;;
51686;SDS011;37774;52.192;4.584;2023-11-22T05:31:09;32.75;;;11.38;;
51686;SDS011;37774;52.192;4.584;2023-11-22T05:33:56;41.58;;;11.38;;
51686;SDS011;37774;52.192;4.584;2023-11-22T05:36:41;23.30;;;11.23;;
51686;SDS011;37774;52.192;4.584;2023-11-22T05:39:26;37.05;;;12.55;;
51686;SDS011;37774;52.192;4.584;2023-11-22T05:42:11;30.42;;;12.93;;
51686;SDS011;37774;52.192;4.584;2023-11-22T05:44:58;26.08;;;11.50;;
51686;SDS011;37774;52.192;4.584;2023-11-22T05:47:43;28.33;;;11.27;;
51686;SDS011;37774;52.192;4.584;2023-11-22T05:50:28;31.65;;;13.55;;
51686;SDS011;37774;52.192;4.584;2023-11-22T05:53:13;30.85;;;11.93;;
51686;SDS011;37774;52.192;4.584;2023-11-22T05:56:03;35.05;;;11.98;;
51686;SDS011;37774;52.192;4.584;2023-11-22T05:58:48;25.45;;;11.10;;
51686;SDS011;37774;52.192;4.584;2023-11-22T06:01:35;29.90;;;11.55;;
51686;SDS011;37774;52.192;4.584;2023-11-22T06:04:20;35.47;;;13.38;;
51686;SDS011;37774;52.192;4.584;2023-11-22T06:07:05;29.33;;;11.23;;
51686;SDS011;37774;52.192;4.584;2023-11-22T06:09:50;26.40;;;10.40;;
51686;SDS011;37774;52.192;4.584;2023-11-22T06:12:35;29.45;;;10.35;;
51686;SDS011;37774;52.192;4.584;2023-11-22T06:15:21;28.95;;;11.10;;
51686;SDS011;37774;52.192;4.584;2023-11-22T06:18:08;27.70;;;11.20;;
51686;SDS011;37774;52.192;4.584;2023-11-22T06:20:54;29.08;;;10.95;;
51686;SDS011;37774;52.192;4.584;2023-11-22T06:23:39;36.65;;;12.48;;
51686;SDS011;37774;52.192;4.584;2023-11-22T06:26:24;32.85;;;11.23;;
51686;SDS011;37774;52.192;4.584;2023-11-22T06:29:09;27.13;;;10.93;;
51686;SDS011;37774;52.192;4.584;2023-11-22T06:31:54;26.55;;;10.73;;
51686;SDS011;37774;52.192;4.584;2023-11-22T06:34:41;28.17;;;11.15;;
51686;SDS011;37774;52.192;4.584;2023-11-22T06:37:26;27.92;;;11.02;;
51686;SDS011;37774;52.192;4.584;2023-11-22T06:40:12;29.13;;;10.65;;
51686;SDS011;37774;52.192;4.584;2023-11-22T06:42:57;32.78;;;12.20;;
51686;SDS011;37774;52.192;4.584;2023-11-22T06:45:42;30.33;;;11.55;;
51686;SDS011;37774;52.192;4.584;2023-11-22T06:48:27;31.48;;;12.50;;
51686;SDS011;37774;52.192;4.584;2023-11-22T06:51:13;40.17;;;13.30;;
51686;SDS011;37774;52.192;4.584;2023-11-22T06:53:58;26.02;;;10.85;;
51686;SDS011;37774;52.192;4.584;2023-11-22T06:56:43;32.22;;;12.68;;
51686;SDS011;37774;52.192;4.584;2023-11-22T06:59:29;31.60;;;11.10;;
51686;SDS011;37774;52.192;4.584;2023-11-22T07:02:14;42.72;;;14.30;;
51686;SDS011;37774;52.192;4.584;2023-11-22T07:04:59;31.88;;;11.90;;
51686;SDS011;37774;52.192;4.584;2023-11-22T07:07:45;31.17;;;11.80;;
51686;SDS011;37774;52.192;4.584;2023-11-22T07:10:31;26.30;;;10.75;;
51686;SDS011;37774;52.192;4.584;2023-11-22T07:13:17;28.42;;;11.07;;
51686;SDS011;37774;52.192;4.584;2023-11-22T07:16:02;26.60;;;12.23;;
51686;SDS011;37774;52.192;4.584;2023-11-22T07:18:48;37.30;;;14.38;;
51686;SDS011;37774;52.192;4.584;2023-11-22T07:21:33;26.17;;;11.77;;
51686;SDS011;37774;52.192;4.584;2023-11-22T07:24:22;35.35;;;12.98;;
51686;SDS011;37774;52.192;4.584;2023-11-22T07:27:07;42.33;;;12.82;;
51686;SDS011;37774;52.192;4.584;2023-11-22T07:29:56;39.10;;;12.93;;
51686;SDS011;37774;52.192;4.584;2023-11-22T07:32:41;32.88;;;11.00;;
51686;SDS011;37774;52.192;4.584;2023-11-22T07:35:27;33.00;;;12.63;;
51686;SDS011;37774;52.192;4.584;2023-11-22T07:38:13;39.72;;;11.50;;
51686;SDS011;37774;52.192;4.584;2023-11-22T07:40:59;35.72;;;13.57;;
51686;SDS011;37774;52.192;4.584;2023-11-22T07:43:44;31.25;;;12.23;;
51686;SDS011;37774;52.192;4.584;2023-11-22T07:46:29;37.17;;;13.05;;
51686;SDS011;37774;52.192;4.584;2023-11-22T07:49:14;40.50;;;13.25;;
51686;SDS011;37774;52.192;4.584;2023-11-22T07:51:59;41.42;;;13.77;;
51686;SDS011;37774;52.192;4.584;2023-11-22T07:54:44;35.70;;;13.13;;
51686;SDS011;37774;52.192;4.584;2023-11-22T07:57:31;33.55;;;12.35;;
51686;SDS011;37774;52.192;4.584;2023-11-22T08:00:17;29.83;;;11.52;;
51686;SDS011;37774;52.192;4.584;2023-11-22T08:03:03;41.30;;;13.70;;
51686;SDS011;37774;52.192;4.584;2023-11-22T08:05:50;34.47;;;12.00;;
51686;SDS011;37774;52.192;4.584;2023-11-22T08:08:37;32.67;;;12.48;;
51686;SDS011;37774;52.192;4.584;2023-11-22T08:11:23;27.85;;;12.20;;
51686;SDS011;37774;52.192;4.584;2023-11-22T08:14:09;36.67;;;13.60;;
51686;SDS011;37774;52.192;4.584;2023-11-22T08:16:56;39.15;;;13.52;;
51686;SDS011;37774;52.192;4.584;2023-11-22T08:19:41;34.35;;;14.25;;
51686;SDS011;37774;52.192;4.584;2023-11-22T08:22:27;33.63;;;13.38;;
51686;SDS011;37774;52.192;4.584;2023-11-22T08:25:13;31.30;;;11.50;;
51686;SDS011;37774;52.192;4.584;2023-11-22T08:27:59;33.22;;;13.60;;
51686;SDS011;37774;52.192;4.584;2023-11-22T08:30:49;33.00;;;12.32;;
51686;SDS011;37774;52.192;4.584;2023-11-22T08:33:34;34.58;;;11.98;;
51686;SDS011;37774;52.192;4.584;2023-11-22T08:36:19;38.35;;;13.73;;
51686;SDS011;37774;52.192;4.584;2023-11-22T08:39:04;32.20;;;13.15;;
51686;SDS011;37774;52.192;4.584;2023-11-22T08:41:50;39.03;;;12.98;;
51686;SDS011;37774;52.192;4.584;2023-11-22T08:44:35;36.38;;;13.60;;
51686;SDS011;37774;52.192;4.584;2023-11-22T08:47:21;34.88;;;13.10;;
51686;SDS011;37774;52.192;4.584;2023-11-22T08:50:07;32.90;;;13.10;;
51686;SDS011;37774;52.192;4.584;2023-11-22T08:52:55;28.25;;;12.50;;
51686;SDS011;37774;52.192;4.584;2023-11-22T08:55:41;39.83;;;12.88;;
51686;SDS011;37774;52.192;4.584;2023-11-22T08:58:27;41.75;;;14.65;;
51686;SDS011;37774;52.192;4.584;2023-11-22T09:01:12;30.92;;;11.93;;
51686;SDS011;37774;52.192;4.584;2023-11-22T09:03:59;40.15;;;14.15;;
51686;SDS011;37774;52.192;4.584;2023-11-22T09:06:44;37.55;;;12.65;;
51686;SDS011;37774;52.192;4.584;2023-11-22T09:09:31;39.30;;;13.63;;
51686;SDS011;37774;52.192;4.584;2023-11-22T09:12:16;52.40;;;16.42;;
51686;SDS011;37774;52.192;4.584;2023-11-22T09:15:03;34.78;;;13.10;;
51686;SDS011;37774;52.192;4.584;2023-11-22T09:17:52;39.20;;;15.30;;
51686;SDS011;37774;52.192;4.584;2023-11-22T09:20:39;32.58;;;13.65;;
51686;SDS011;37774;52.192;4.584;2023-11-22T09:23:27;40.25;;;13.60;;
51686;SDS011;37774;52.192;4.584;2023-11-22T09:26:13;40.72;;;13.98;;
51686;SDS011;37774;52.192;4.584;2023-11-22T09:28:59;45.75;;;14.52;;
51686;SDS011;37774;52.192;4.584;2023-11-22T09:31:45;33.67;;;13.70;;
51686;SDS011;37774;52.192;4.584;2023-11-22T09:34:30;44.97;;;14.43;;
51686;SDS011;37774;52.192;4.584;2023-11-22T09:37:16;39.50;;;14.23;;
51686;SDS011;37774;52.192;4.584;2023-11-22T09:40:03;35.00;;;14.55;;
51686;SDS011;37774;52.192;4.584;2023-11-22T09:42:52;40.90;;;13.57;;
51686;SDS011;37774;52.192;4.584;2023-11-22T09:45:39;33.97;;;13.32;;
51686;SDS011;37774;52.192;4.584;2023-11-22T09:48:24;39.47;;;14.93;;
51686;SDS011;37774;52.192;4.584;2023-11-22T09:51:14;39.37;;;13.73;;
51686;SDS011;37774;52.192;4.584;2023-11-22T09:54:06;36.03;;;14.27;;
51686;SDS011;37774;52.192;4.584;2023-11-22T09:56:56;34.42;;;14.38;;
51686;SDS011;37774;52.192;4.584;2023-11-22T09:59:44;39.88;;;13.57;;
51686;SDS011;37774;52.192;4.584;2023-11-22T10:02:30;41.05;;;15.10;;
51686;SDS011;37774;52.192;4.584;2023-11-22T10:05:16;43.50;;;16.08;;
51686;SDS011;37774;52.192;4.584;2023-11-22T10:08:00;40.47;;;16.17;;
51686;SDS011;37774;52.192;4.584;2023-11-22T10:10:47;41.50;;;16.60;;
51686;SDS011;37774;52.192;4.584;2023-11-22T10:13:34;41.67;;;16.42;;
51686;SDS011;37774;52.192;4.584;2023-11-22T10:16:19;49.22;;;15.98;;
51686;SDS011;37774;52.192;4.584;2023-11-22T10:19:05;38.28;;;15.75;;
51686;SDS011;37774;52.192;4.584;2023-11-22T10:21:59;50.15;;;18.35;;
51686;SDS011;37774;52.192;4.584;2023-11-22T10:24:47;43.95;;;15.88;;
51686;SDS011;37774;52.192;4.584;2023-11-22T10:27:33;40.00;;;15.52;;
51686;SDS011;37774;52.192;4.584;2023-11-22T10:30:19;37.33;;;15.43;;
51686;SDS011;37774;52.192;4.584;2023-11-22T10:33:04;39.85;;;16.27;;
51686;SDS011;37774;52.192;4.584;2023-11-22T10:35:50;48.83;;;15.95;;
51686;SDS011;37774;52.192;4.584;2023-11-22T10:38:36;41.17;;;15.85;;
51686;SDS011;37774;52.192;4.584;2023-11-22T10:41:21;41.13;;;15.45;;
51686;SDS011;37774;52.192;4.584;2023-11-22T10:44:07;52.83;;;16.75;;
51686;SDS011;37774;52.192;4.584;2023-11-22T10:46:53;44.47;;;17.45;;
51686;SDS011;37774;52.192;4.584;2023-11-22T10:49:38;38.20;;;15.30;;
51686;SDS011;37774;52.192;4.584;2023-11-22T10:52:24;43.78;;;16.52;;
51686;SDS011;37774;52.192;4.584;2023-11-22T10:55:11;38.22;;;14.98;;
51686;SDS011;37774;52.192;4.584;2023-11-22T10:57:58;33.63;;;15.27;;
51686;SDS011;37774;52.192;4.584;2023-11-22T11:00:47;38.92;;;15.73;;
51686;SDS011;37774;52.192;4.584;2023-11-22T11:03:35;41.50;;;14.98;;
51686;SDS011;37774;52.192;4.584;2023-11-22T11:06:26;40.20;;;15.07;;
51686;SDS011;37774;52.192;4.584;2023-11-22T11:09:15;46.08;;;17.48;;
51686;SDS011;37774;52.192;4.584;2023-11-22T11:12:05;29.35;;;12.57;;
51686;SDS011;37774;52.192;4.584;2023-11-22T11:14:51;36.30;;;15.23;;
51686;SDS011;37774;52.192;4.584;2023-11-22T11:17:38;39.53;;;15.40;;
51686;SDS011;37774;52.192;4.584;2023-11-22T11:20:23;31.40;;;12.90;;
51686;SDS011;37774;52.192;4.584;2023-11-22T11:23:11;43.30;;;15.07;;
51686;SDS011;37774;52.192;4.584;2023-11-22T11:25:59;35.17;;;15.20;;
51686;SDS011;37774;52.192;4.584;2023-11-22T11:28:54;33.10;;;13.43;;
51686;SDS011;37774;52.192;4.584;2023-11-22T11:31:39;41.90;;;14.05;;
51686;SDS011;37774;52.192;4.584;2023-11-22T11:34:26;36.85;;;16.05;;
51686;SDS011;37774;52.192;4.584;2023-11-22T11:37:12;34.40;;;14.05;;
51686;SDS011;37774;52.192;4.584;2023-11-22T11:39:57;35.22;;;13.43;;
51686;SDS011;37774;52.192;4.584;2023-11-22T11:42:43;38.00;;;12.90;;
51686;SDS011;37774;52.192;4.584;2023-11-22T11:45:29;33.05;;;11.77;;
51686;SDS011;37774;52.192;4.584;2023-11-22T11:48:15;28.42;;;10.20;;
51686;SDS011;37774;52.192;4.584;2023-11-22T11:51:02;22.65;;;9.88;;
51686;SDS011;37774;52.192;4.584;2023-11-22T11:53:47;28.48;;;12.02;;
51686;SDS011;37774;52.192;4.584;2023-11-22T11:56:33;30.02;;;11.10;;
51686;SDS011;37774;52.192;4.584;2023-11-22T11:59:18;27.95;;;12.55;;
51686;SDS011;37774;52.192;4.584;2023-11-22T12:02:03;28.95;;;12.07;;
51686;SDS011;37774;52.192;4.584;2023-11-22T12:04:49;26.40;;;10.93;;
51686;SDS011;37774;52.192;4.584;2023-11-22T12:07:35;29.20;;;10.20;;
51686;SDS011;37774;52.192;4.584;2023-11-22T12:10:21;22.77;;;9.68;;
51686;SDS011;37774;52.192;4.584;2023-11-22T12:13:07;21.73;;;10.50;;
51686;SDS011;37774;52.192;4.584;2023-11-22T12:15:53;18.25;;;8.88;;
51686;SDS011;37774;52.192;4.584;2023-11-22T12:18:39;21.20;;;9.23;;
51686;SDS011;37774;52.192;4.584;2023-11-22T12:21:24;23.05;;;10.25;;
51686;SDS011;37774;52.192;4.584;2023-11-22T12:24:12;21.30;;;10.35;;
51686;SDS011;37774;52.192;4.584;2023-11-22T12:26:57;24.90;;;10.43;;
51686;SDS011;37774;52.192;4.584;2023-11-22T12:29:42;27.05;;;11.27;;
51686;SDS011;37774;52.192;4.584;2023-11-22T12:35:14;21.27;;;9.25;;
51686;SDS011;37774;52.192;4.584;2023-11-22T12:38:00;23.95;;;9.55;;
51686;SDS011;37774;52.192;4.584;2023-11-22T12:40:47;22.88;;;10.63;;
51686;SDS011;37774;52.192;4.584;2023-11-22T12:43:32;29.87;;;9.60;;
51686;SDS011;37774;52.192;4.584;2023-11-22T12:46:17;18.50;;;8.30;;
51686;SDS011;37774;52.192;4.584;2023-11-22T12:49:05;21.38;;;9.65;;
51686;SDS011;37774;52.192;4.584;2023-11-22T12:51:51;20.95;;;8.57;;
51686;SDS011;37774;52.192;4.584;2023-11-22T12:54:37;19.02;;;9.35;;
51686;SDS011;37774;52.192;4.584;2023-11-22T12:57:24;20.92;;;8.60;;
51686;SDS011;37774;52.192;4.584;2023-11-22T13:00:10;19.65;;;8.60;;
51686;SDS011;37774;52.192;4.584;2023-11-22T13:02:55;16.60;;;8.23;;
51686;SDS011;37774;52.192;4.584;2023-11-22T13:05:42;18.02;;;8.18;;
51686;SDS011;37774;52.192;4.584;2023-11-22T13:08:27;19.63;;;7.85;;
51686;SDS011;37774;52.192;4.584;2023-11-22T13:11:13;19.02;;;7.95;;
51686;SDS011;37774;52.192;4.584;2023-11-22T13:14:00;20.13;;;9.25;;
51686;SDS011;37774;52.192;4.584;2023-11-22T13:16:45;16.65;;;8.48;;
51686;SDS011;37774;52.192;4.584;2023-11-22T13:19:31;20.63;;;7.93;;
51686;SDS011;37774;52.192;4.584;2023-11-22T13:22:16;21.88;;;8.43;;
51686;SDS011;37774;52.192;4.584;2023-11-22T13:25:03;16.85;;;7.72;;
51686;SDS011;37774;52.192;4.584;2023-11-22T13:27:50;16.60;;;7.28;;
51686;SDS011;37774;52.192;4.584;2023-11-22T13:30:37;18.23;;;7.68;;
51686;SDS011;37774;52.192;4.584;2023-11-22T13:33:22;23.13;;;9.20;;
51686;SDS011;37774;52.192;4.584;2023-11-22T13:36:07;17.15;;;8.00;;
51686;SDS011;37774;52.192;4.584;2023-11-22T13:38:52;16.40;;;7.22;;
51686;SDS011;37774;52.192;4.584;2023-11-22T13:41:38;17.40;;;8.25;;
51686;SDS011;37774;52.192;4.584;2023-11-22T13:44:26;17.55;;;6.93;;
51686;SDS011;37774;52.192;4.584;2023-11-22T13:47:12;26.00;;;7.65;;
51686;SDS011;37774;52.192;4.584;2023-11-22T13:49:58;18.05;;;8.48;;
51686;SDS011;37774;52.192;4.584;2023-11-22T13:52:43;15.20;;;6.55;;
51686;SDS011;37774;52.192;4.584;2023-11-22T13:55:29;17.08;;;7.70;;
51686;SDS011;37774;52.192;4.584;2023-11-22T13:58:14;19.70;;;8.90;;
51686;SDS011;37774;52.192;4.584;2023-11-22T14:00:59;16.52;;;8.20;;
51686;SDS011;37774;52.192;4.584;2023-11-22T14:03:46;21.35;;;10.05;;
51686;SDS011;37774;52.192;4.584;2023-11-22T14:06:31;22.55;;;9.63;;
51686;SDS011;37774;52.192;4.584;2023-11-22T14:09:16;17.48;;;7.53;;
51686;SDS011;37774;52.192;4.584;2023-11-22T14:12:03;22.98;;;8.48;;
51686;SDS011;37774;52.192;4.584;2023-11-22T14:14:48;22.83;;;9.13;;
51686;SDS011;37774;52.192;4.584;2023-11-22T14:17:35;26.80;;;8.80;;
51686;SDS011;37774;52.192;4.584;2023-11-22T14:20:22;22.45;;;8.45;;
51686;SDS011;37774;52.192;4.584;2023-11-22T14:23:08;18.80;;;8.80;;
51686;SDS011;37774;52.192;4.584;2023-11-22T14:25:53;21.65;;;8.95;;
51686;SDS011;37774;52.192;4.584;2023-11-22T14:28:38;19.98;;;9.32;;
51686;SDS011;37774;52.192;4.584;2023-11-22T14:31:23;18.83;;;8.48;;
51686;SDS011;37774;52.192;4.584;2023-11-22T14:34:08;20.48;;;9.02;;
51686;SDS011;37774;52.192;4.584;2023-11-22T14:36:57;23.48;;;9.07;;
51686;SDS011;37774;52.192;4.584;2023-11-22T14:39:42;23.33;;;10.00;;
51686;SDS011;37774;52.192;4.584;2023-11-22T14:42:28;22.90;;;10.27;;
51686;SDS011;37774;52.192;4.584;2023-11-22T14:45:13;23.90;;;9.55;;
51686;SDS011;37774;52.192;4.584;2023-11-22T14:47:58;33.67;;;10.32;;
51686;SDS011;37774;52.192;4.584;2023-11-22T14:50:45;20.02;;;8.43;;
51686;SDS011;37774;52.192;4.584;2023-11-22T14:53:31;30.60;;;11.70;;
51686;SDS011;37774;52.192;4.584;2023-11-22T14:56:16;23.90;;;10.80;;
51686;SDS011;37774;52.192;4.584;2023-11-22T14:59:02;20.88;;;10.07;;
51686;SDS011;37774;52.192;4.584;2023-11-22T15:01:47;26.42;;;11.55;;
51686;SDS011;37774;52.192;4.584;2023-11-22T15:04:33;28.10;;;10.32;;
51686;SDS011;37774;52.192;4.584;2023-11-22T15:07:19;24.92;;;9.60;;
51686;SDS011;37774;52.192;4.584;2023-11-22T15:10:07;25.75;;;10.85;;
51686;SDS011;37774;52.192;4.584;2023-11-22T15:12:53;25.38;;;10.63;;
51686;SDS011;37774;52.192;4.584;2023-11-22T15:15:39;19.30;;;9.77;;
51686;SDS011;37774;52.192;4.584;2023-11-22T15:18:24;29.75;;;10.75;;
51686;SDS011;37774;52.192;4.584;2023-11-22T15:21:10;24.03;;;10.70;;
51686;SDS011;37774;52.192;4.584;2023-11-22T15:23:55;24.52;;;9.68;;
51686;SDS011;37774;52.192;4.584;2023-11-22T15:26:42;23.83;;;10.02;;
51686;SDS011;37774;52.192;4.584;2023-11-22T15:29:27;24.85;;;9.40;;
51686;SDS011;37774;52.192;4.584;2023-11-22T15:32:12;22.00;;;9.68;;
51686;SDS011;37774;52.192;4.584;2023-11-22T15:34:59;21.05;;;9.40;;
51686;SDS011;37774;52.192;4.584;2023-11-22T15:37:44;27.30;;;10.05;;
51686;SDS011;37774;52.192;4.584;2023-11-22T15:40:29;22.40;;;9.20;;
51686;SDS011;37774;52.192;4.584;2023-11-22T15:43:16;24.63;;;9.10;;
51686;SDS011;37774;52.192;4.584;2023-11-22T15:46:01;21.98;;;9.48;;
51686;SDS011;37774;52.192;4.584;2023-11-22T15:48:48;21.60;;;9.15;;
51686;SDS011;37774;52.192;4.584;2023-11-22T15:51:36;25.50;;;10.90;;
51686;SDS011;37774;52.192;4.584;2023-11-22T15:54:21;17.15;;;9.02;;
51686;SDS011;37774;52.192;4.584;2023-11-22T15:57:06;21.40;;;9.10;;
51686;SDS011;37774;52.192;4.584;2023-11-22T15:59:53;26.23;;;10.15;;
51686;SDS011;37774;52.192;4.584;2023-11-22T16:02:38;24.83;;;9.02;;
51686;SDS011;37774;52.192;4.584;2023-11-22T16:05:24;27.30;;;10.75;;
51686;SDS011;37774;52.192;4.584;2023-11-22T16:08:09;19.08;;;8.45;;
51686;SDS011;37774;52.192;4.584;2023-11-22T16:10:54;20.00;;;9.77;;
51686;SDS011;37774;52.192;4.584;2023-11-22T16:16:48;24.08;;;10.25;;
51686;SDS011;37774;52.192;4.584;2023-11-22T16:19:34;23.00;;;10.73;;
51686;SDS011;37774;52.192;4.584;2023-11-22T16:22:19;20.75;;;9.98;;
51686;SDS011;37774;52.192;4.584;2023-11-22T16:25:05;21.10;;;9.80;;
51686;SDS011;37774;52.192;4.584;2023-11-22T16:27:51;20.42;;;9.15;;
51686;SDS011;37774;52.192;4.584;2023-11-22T16:30:36;25.65;;;11.25;;